Truro, Massachusetts
Current Conditions -  °F | °C
As of 5:35 PM on Monday 24 Nov 2014 (Local Time) from KPVC Reporting Station
Overcast Overcast  
Wind Chill: 59°   Ceiling: 1700
Heat Index: 59°   Visibility: 6mi
Dew Point: 55°   Wind: 17mph
Humidity: 88%   Direction: 200°SSW
Pressure: 29.69"   Gusts: 23mph
Location:  42°N, 70.07°W
Report Text: KPVC 242235Z 20015G20KT 6SM BKN017 OVC024 15/13 A2969 RMK AO1
Loading
Personal Weather Stations






























Interactive Weather Map New forecast layout! Learn more

10-Day Weather Forecast

Advertisements
Track Severe Weather on mobile